Time;durP1;ratioP1;P1;durP2;ratioP2;P2;SDS_P1;SDS_P2;PMS_P1;PMS_P2;Temp;Humidity;BMP_temperature;BMP_pressure;BME280_temperature;BME280_humidity;BME280_pressure;Samples;Min_cycle;Max_cycle;Signal;HPM_P1;HPM_P2
2021/10/06 00:00:01;;;;;;;;;;;21.60;58.30;;;;;;495394;240;1015;-47
2021/10/06 00:02:02;;;;;;;;;;;21.60;58.30;;;;;;495222;237;1352;-47
2021/10/06 00:04:04;;;;;;;;;;;21.50;58.40;;;;;;495165;241;2162;-47
2021/10/06 00:06:05;;;;;;;;;;;21.60;58.40;;;;;;495579;240;1205;-47
2021/10/06 00:08:06;;;;;;;;;;;21.60;58.40;;;;;;495222;241;1051;-47
2021/10/06 00:10:08;;;;;;;;;;;21.50;58.40;;;;;;495649;240;1088;-47
2021/10/06 00:12:09;;;;;;;;;;;21.60;58.40;;;;;;495076;241;1299;-47
2021/10/06 00:14:10;;;;;;;;;;;21.60;58.40;;;;;;495604;240;1058;-47
2021/10/06 00:16:12;;;;;;;;;;;21.60;58.30;;;;;;495509;240;1177;-47
2021/10/06 00:18:13;;;;;;;;;;;21.60;58.40;;;;;;495193;240;1849;-47
2021/10/06 00:20:14;;;;;;;;;;;21.60;58.40;;;;;;495216;241;1051;-47
2021/10/06 00:22:16;;;;;;;;;;;21.50;58.30;;;;;;495191;240;1270;-47
2021/10/06 00:24:17;;;;;;;;;;;21.60;58.30;;;;;;495220;241;2131;-47
2021/10/06 00:26:18;;;;;;;;;;;21.60;58.30;;;;;;495678;240;1437;-47
2021/10/06 00:28:19;;;;;;;;;;;21.60;58.40;;;;;;495643;240;1182;-47
2021/10/06 00:30:21;;;;;;;;;;;21.60;58.20;;;;;;495327;240;1068;-47
2021/10/06 00:32:22;;;;;;;;;;;21.60;58.30;;;;;;495328;240;1296;-47
2021/10/06 00:34:23;;;;;;;;;;;21.60;58.20;;;;;;495466;240;1092;-47
2021/10/06 00:36:25;;;;;;;;;;;21.60;58.20;;;;;;495479;240;1613;-47
2021/10/06 00:38:26;;;;;;;;;;;21.60;58.20;;;;;;495600;240;1188;-47
2021/10/06 00:40:27;;;;;;;;;;;21.60;58.30;;;;;;495625;240;1051;-47
2021/10/06 00:42:29;;;;;;;;;;;21.60;58.40;;;;;;495145;240;1254;-47
2021/10/06 00:44:30;;;;;;;;;;;21.60;58.30;;;;;;495489;240;2123;-47
2021/10/06 00:46:31;;;;;;;;;;;21.60;58.40;;;;;;495255;240;1144;-47
2021/10/06 00:48:33;;;;;;;;;;;21.50;58.40;;;;;;495283;240;1192;-47
2021/10/06 00:50:34;;;;;;;;;;;21.60;58.40;;;;;;495126;241;1168;-47
2021/10/06 00:52:35;;;;;;;;;;;21.60;58.30;;;;;;495584;240;1272;-47
2021/10/06 00:54:37;;;;;;;;;;;21.60;58.40;;;;;;495513;240;1008;-47
2021/10/06 00:56:38;;;;;;;;;;;21.50;58.40;;;;;;495304;240;1308;-47
2021/10/06 00:58:39;;;;;;;;;;;21.60;58.30;;;;;;495194;241;1121;-47
2021/10/06 01:00:41;;;;;;;;;;;21.60;58.40;;;;;;495190;240;1346;-47
2021/10/06 01:02:42;;;;;;;;;;;21.50;58.30;;;;;;495426;240;1797;-47
2021/10/06 01:04:43;;;;;;;;;;;21.50;58.30;;;;;;495619;240;2174;-47
2021/10/06 01:06:45;;;;;;;;;;;21.60;58.20;;;;;;495260;240;1382;-47
2021/10/06 01:08:46;;;;;;;;;;;21.60;58.30;;;;;;495221;241;1051;-47
2021/10/06 01:10:47;;;;;;;;;;;21.60;58.40;;;;;;495110;241;1528;-47
2021/10/06 01:12:49;;;;;;;;;;;21.50;58.20;;;;;;495627;240;1087;-47
2021/10/06 01:14:50;;;;;;;;;;;21.60;58.40;;;;;;495309;240;1141;-47
2021/10/06 01:16:51;;;;;;;;;;;21.60;58.40;;;;;;495104;241;1347;-47
2021/10/06 01:18:52;;;;;;;;;;;21.50;58.40;;;;;;495246;240;1110;-47
2021/10/06 01:20:54;;;;;;;;;;;21.50;58.40;;;;;;495277;240;1210;-47
2021/10/06 01:22:55;;;;;;;;;;;21.50;58.30;;;;;;495192;241;1069;-47
2021/10/06 01:24:59;;;;;;;;;;;21.60;58.30;;;;;;495391;240;2126;-47
2021/10/06 01:26:58;;;;;;;;;;;21.50;58.30;;;;;;494949;240;2192;-47
2021/10/06 01:28:59;;;;;;;;;;;21.50;58.40;;;;;;495444;240;1055;-47
2021/10/06 01:31:00;;;;;;;;;;;21.60;58.30;;;;;;495507;240;1131;-47
2021/10/06 01:33:02;;;;;;;;;;;21.50;58.30;;;;;;495099;240;1385;-47
2021/10/06 01:35:03;;;;;;;;;;;21.50;58.40;;;;;;495586;240;1085;-47
2021/10/06 01:37:04;;;;;;;;;;;21.60;58.30;;;;;;495114;241;1430;-47
2021/10/06 01:39:06;;;;;;;;;;;21.60;58.20;;;;;;495696;240;1097;-47
2021/10/06 01:41:08;;;;;;;;;;;21.60;58.20;;;;;;495352;240;1346;-47
2021/10/06 01:43:09;;;;;;;;;;;21.60;58.30;;;;;;495173;241;1140;-47
2021/10/06 01:45:10;;;;;;;;;;;21.60;58.40;;;;;;495559;240;2182;-47
2021/10/06 01:47:12;;;;;;;;;;;21.60;58.40;;;;;;495240;240;1204;-47
2021/10/06 01:49:13;;;;;;;;;;;21.60;58.40;;;;;;495279;240;1250;-48
2021/10/06 01:51:14;;;;;;;;;;;21.60;58.30;;;;;;495251;240;1367;-47
2021/10/06 01:53:15;;;;;;;;;;;21.60;58.20;;;;;;495252;240;1044;-47
2021/10/06 01:55:17;;;;;;;;;;;21.60;58.20;;;;;;495159;241;1105;-47
2021/10/06 01:57:18;;;;;;;;;;;21.60;58.30;;;;;;495178;240;1151;-47
2021/10/06 01:59:19;;;;;;;;;;;21.60;58.30;;;;;;495408;240;1054;-47
2021/10/06 02:01:21;;;;;;;;;;;21.50;58.30;;;;;;495183;240;1323;-47
2021/10/06 02:03:22;;;;;;;;;;;21.50;58.30;;;;;;495547;240;1544;-47
2021/10/06 02:05:23;;;;;;;;;;;21.60;58.40;;;;;;495706;240;2116;-47
2021/10/06 02:07:25;;;;;;;;;;;21.60;58.20;;;;;;495310;240;1619;-47
2021/10/06 02:09:26;;;;;;;;;;;21.60;58.20;;;;;;495195;241;1073;-47
2021/10/06 02:11:27;;;;;;;;;;;21.60;58.20;;;;;;495060;241;1418;-47
2021/10/06 02:13:29;;;;;;;;;;;21.60;58.20;;;;;;495466;240;1119;-47
2021/10/06 02:15:30;;;;;;;;;;;21.60;58.20;;;;;;495400;240;1048;-47
2021/10/06 02:17:31;;;;;;;;;;;21.60;58.30;;;;;;495231;240;1207;-47
2021/10/06 02:19:33;;;;;;;;;;;21.50;58.40;;;;;;495410;240;1082;-47
2021/10/06 02:21:34;;;;;;;;;;;21.50;58.40;;;;;;495279;240;1345;-48
2021/10/06 02:23:35;;;;;;;;;;;21.50;58.30;;;;;;495248;241;1186;-47
2021/10/06 02:25:37;;;;;;;;;;;21.50;58.30;;;;;;495611;240;2194;-47
2021/10/06 02:27:38;;;;;;;;;;;21.60;58.40;;;;;;495679;240;1330;-47
2021/10/06 02:29:39;;;;;;;;;;;21.60;58.30;;;;;;495311;241;1038;-47
2021/10/06 02:31:40;;;;;;;;;;;21.60;58.30;;;;;;495228;240;1647;-47
2021/10/06 02:33:42;;;;;;;;;;;21.60;58.30;;;;;;495285;241;1214;-47
2021/10/06 02:35:43;;;;;;;;;;;21.50;58.30;;;;;;495290;241;1356;-47
2021/10/06 02:37:44;;;;;;;;;;;21.60;58.40;;;;;;495657;240;1168;-47
2021/10/06 02:39:46;;;;;;;;;;;21.60;58.30;;;;;;495290;241;1198;-47
2021/10/06 02:41:47;;;;;;;;;;;21.50;58.30;;;;;;495547;240;1265;-47
2021/10/06 02:43:48;;;;;;;;;;;21.60;58.30;;;;;;495765;240;1027;-48
2021/10/06 02:45:50;;;;;;;;;;;21.60;58.20;;;;;;495699;240;2119;-47
2021/10/06 02:47:51;;;;;;;;;;;21.60;58.20;;;;;;495450;240;1099;-47
2021/10/06 02:49:52;;;;;;;;;;;21.60;58.20;;;;;;495354;240;1234;-47
2021/10/06 02:51:54;;;;;;;;;;;21.60;58.10;;;;;;495155;240;1725;-47
2021/10/06 02:53:55;;;;;;;;;;;21.60;58.20;;;;;;495228;241;1266;-47
2021/10/06 02:55:56;;;;;;;;;;;21.60;58.20;;;;;;495242;241;1141;-47
2021/10/06 02:57:58;;;;;;;;;;;21.60;58.20;;;;;;495597;240;1059;-47
2021/10/06 02:59:59;;;;;;;;;;;21.60;58.20;;;;;;495698;240;1087;-47
2021/10/06 03:02:00;;;;;;;;;;;21.50;58.20;;;;;;495096;240;1186;-47
2021/10/06 03:04:02;;;;;;;;;;;21.60;58.30;;;;;;495244;241;1181;-47
2021/10/06 03:06:03;;;;;;;;;;;21.60;58.20;;;;;;495226;241;2193;-47
2021/10/06 03:08:04;;;;;;;;;;;21.60;58.20;;;;;;495277;241;1031;-47
2021/10/06 03:10:05;;;;;;;;;;;21.60;58.30;;;;;;495257;241;1274;-47
2021/10/06 03:12:07;;;;;;;;;;;21.50;58.30;;;;;;495158;240;1163;-47
2021/10/06 03:14:08;;;;;;;;;;;21.50;58.30;;;;;;495224;241;1112;-47
2021/10/06 03:16:10;;;;;;;;;;;21.60;58.30;;;;;;495184;241;1154;-47
2021/10/06 03:18:11;;;;;;;;;;;21.60;58.20;;;;;;495584;240;1036;-47
2021/10/06 03:20:12;;;;;;;;;;;21.60;58.20;;;;;;495209;241;1081;-47
2021/10/06 03:22:14;;;;;;;;;;;21.60;58.20;;;;;;495277;240;1086;-47
2021/10/06 03:24:15;;;;;;;;;;;21.60;58.20;;;;;;495729;240;994;-47
2021/10/06 03:26:16;;;;;;;;;;;21.60;58.40;;;;;;495313;240;2112;-47
2021/10/06 03:28:18;;;;;;;;;;;21.60;58.30;;;;;;495599;240;1216;-47
2021/10/06 03:30:19;;;;;;;;;;;21.60;58.30;;;;;;495175;241;1022;-47
2021/10/06 03:32:20;;;;;;;;;;;21.50;58.30;;;;;;495214;240;1162;-47
2021/10/06 03:34:21;;;;;;;;;;;21.50;58.30;;;;;;495556;240;1200;-47
2021/10/06 03:36:23;;;;;;;;;;;21.50;58.30;;;;;;495120;241;1671;-47
2021/10/06 03:38:24;;;;;;;;;;;21.60;58.30;;;;;;495070;241;1222;-47
2021/10/06 03:40:25;;;;;;;;;;;21.50;58.30;;;;;;495495;240;1061;-47
2021/10/06 03:42:27;;;;;;;;;;;21.50;58.40;;;;;;495129;241;1156;-47
2021/10/06 03:44:28;;;;;;;;;;;21.50;58.30;;;;;;495504;240;1020;-47
2021/10/06 03:46:29;;;;;;;;;;;21.50;58.20;;;;;;495343;240;2106;-47
2021/10/06 03:48:31;;;;;;;;;;;21.60;58.30;;;;;;495632;240;1324;-47
2021/10/06 03:50:32;;;;;;;;;;;21.60;58.40;;;;;;495231;240;1239;-47
2021/10/06 03:52:33;;;;;;;;;;;21.60;58.30;;;;;;495226;241;1591;-47
2021/10/06 03:54:35;;;;;;;;;;;21.50;58.40;;;;;;495607;240;1042;-47
2021/10/06 03:56:36;;;;;;;;;;;21.50;58.30;;;;;;495158;241;1401;-47
2021/10/06 03:58:37;;;;;;;;;;;21.60;58.30;;;;;;495648;240;1151;-47
2021/10/06 04:00:39;;;;;;;;;;;21.60;58.30;;;;;;495182;240;1514;-48
2021/10/06 04:02:40;;;;;;;;;;;21.60;58.30;;;;;;495231;241;1237;-47
2021/10/06 04:04:41;;;;;;;;;;;21.50;58.30;;;;;;495620;240;1254;-47
2021/10/06 04:06:42;;;;;;;;;;;21.60;58.40;;;;;;495176;241;2186;-47
2021/10/06 04:08:44;;;;;;;;;;;21.60;58.30;;;;;;495635;240;1115;-47
2021/10/06 04:10:45;;;;;;;;;;;21.50;58.30;;;;;;495633;240;1330;-47
2021/10/06 04:12:46;;;;;;;;;;;21.60;58.40;;;;;;495659;240;1232;-47
2021/10/06 04:14:48;;;;;;;;;;;21.50;58.40;;;;;;495253;240;1280;-47
2021/10/06 04:16:49;;;;;;;;;;;21.50;58.40;;;;;;495158;241;1146;-47
2021/10/06 04:18:50;;;;;;;;;;;21.50;58.40;;;;;;495170;241;1054;-47
2021/10/06 04:20:52;;;;;;;;;;;21.60;58.30;;;;;;495131;240;1280;-47
2021/10/06 04:22:53;;;;;;;;;;;21.60;58.20;;;;;;495550;240;1196;-47
2021/10/06 04:24:54;;;;;;;;;;;21.60;58.30;;;;;;495175;241;1186;-47
2021/10/06 04:26:56;;;;;;;;;;;21.60;58.20;;;;;;495455;240;2108;-47
2021/10/06 04:28:57;;;;;;;;;;;21.60;58.20;;;;;;495198;241;1043;-47
2021/10/06 04:30:58;;;;;;;;;;;21.60;58.20;;;;;;495280;240;1490;-47
2021/10/06 04:33:00;;;;;;;;;;;21.60;58.20;;;;;;495174;240;1235;-47
2021/10/06 04:35:01;;;;;;;;;;;21.60;58.20;;;;;;495150;241;1261;-47
2021/10/06 04:37:02;;;;;;;;;;;21.50;58.30;;;;;;495320;240;1239;-47
2021/10/06 04:39:03;;;;;;;;;;;21.60;58.30;;;;;;495130;241;1095;-47
2021/10/06 04:41:05;;;;;;;;;;;21.50;58.30;;;;;;495429;240;1111;-47
2021/10/06 04:43:06;;;;;;;;;;;21.60;58.40;;;;;;494934;241;1186;-47
2021/10/06 04:45:07;;;;;;;;;;;21.60;58.30;;;;;;495127;240;1088;-47
2021/10/06 04:47:09;;;;;;;;;;;21.60;58.20;;;;;;494969;241;2189;-47
2021/10/06 04:49:10;;;;;;;;;;;21.60;58.20;;;;;;495386;240;1072;-47
2021/10/06 04:51:11;;;;;;;;;;;21.60;58.10;;;;;;495084;240;1263;-47
2021/10/06 04:53:13;;;;;;;;;;;21.60;58.10;;;;;;495277;240;1150;-47
2021/10/06 04:55:14;;;;;;;;;;;21.60;58.20;;;;;;495031;241;1159;-47
2021/10/06 04:57:15;;;;;;;;;;;21.60;58.30;;;;;;495018;240;1102;-47
2021/10/06 04:59:17;;;;;;;;;;;21.50;58.30;;;;;;495000;241;1074;-47
2021/10/06 05:01:18;;;;;;;;;;;21.60;58.30;;;;;;494846;241;1192;-47
2021/10/06 05:03:19;;;;;;;;;;;21.50;58.30;;;;;;495064;240;1019;-47
2021/10/06 05:05:21;;;;;;;;;;;21.60;58.20;;;;;;495165;237;2135;-47
2021/10/06 05:07:22;;;;;;;;;;;21.60;58.30;;;;;;495138;240;1298;-47
2021/10/06 05:09:23;;;;;;;;;;;21.60;58.20;;;;;;495059;241;1089;-47
2021/10/06 05:11:25;;;;;;;;;;;21.60;58.30;;;;;;494902;241;1424;-47
2021/10/06 05:13:26;;;;;;;;;;;21.60;58.20;;;;;;495015;241;1044;-47
2021/10/06 05:15:27;;;;;;;;;;;21.60;58.20;;;;;;495001;241;1048;-47
2021/10/06 05:17:29;;;;;;;;;;;21.60;58.30;;;;;;495043;240;1315;-47
2021/10/06 05:19:30;;;;;;;;;;;21.60;58.30;;;;;;495291;240;1071;-47
2021/10/06 05:21:31;;;;;;;;;;;21.60;58.20;;;;;;494870;241;1495;-47
2021/10/06 05:23:33;;;;;;;;;;;21.50;58.10;;;;;;494972;240;1085;-47
2021/10/06 05:25:35;;;;;;;;;;;21.60;58.20;;;;;;494988;241;2209;-47
2021/10/06 05:27:36;;;;;;;;;;;21.50;58.30;;;;;;494901;240;1163;-47
2021/10/06 05:29:37;;;;;;;;;;;21.60;58.20;;;;;;494957;240;1056;-47
2021/10/06 05:31:38;;;;;;;;;;;21.60;58.10;;;;;;494821;237;1439;-47
2021/10/06 05:33:40;;;;;;;;;;;21.60;58.10;;;;;;495175;240;1077;-47
2021/10/06 05:35:41;;;;;;;;;;;21.60;58.10;;;;;;495001;240;1147;-47
2021/10/06 05:37:42;;;;;;;;;;;21.60;58.10;;;;;;494799;240;1227;-47
2021/10/06 05:39:44;;;;;;;;;;;21.60;58.20;;;;;;494858;240;1131;-47
2021/10/06 05:41:45;;;;;;;;;;;21.60;58.10;;;;;;494900;240;1233;-47
2021/10/06 05:43:46;;;;;;;;;;;21.60;58.20;;;;;;495019;240;1212;-47
2021/10/06 05:45:47;;;;;;;;;;;21.60;58.10;;;;;;494936;240;2107;-47
2021/10/06 05:47:49;;;;;;;;;;;21.60;58.20;;;;;;494932;240;1705;-47
2021/10/06 05:49:51;;;;;;;;;;;21.60;58.10;;;;;;494797;241;1100;-47
2021/10/06 05:51:52;;;;;;;;;;;21.60;58.20;;;;;;494814;240;1301;-48
2021/10/06 05:53:53;;;;;;;;;;;21.60;58.20;;;;;;494917;240;1117;-48
2021/10/06 05:55:55;;;;;;;;;;;21.60;58.20;;;;;;494643;241;1352;-47
2021/10/06 05:57:56;;;;;;;;;;;21.60;58.20;;;;;;494778;240;1204;-47
2021/10/06 05:59:57;;;;;;;;;;;21.60;58.20;;;;;;494667;240;1101;-47
2021/10/06 06:01:59;;;;;;;;;;;21.60;58.10;;;;;;494646;240;1364;-47
2021/10/06 06:04:00;;;;;;;;;;;21.60;58.20;;;;;;494766;240;1094;-47
2021/10/06 06:06:01;;;;;;;;;;;21.60;58.10;;;;;;494819;240;2159;-47
2021/10/06 06:08:03;;;;;;;;;;;21.60;58.10;;;;;;494584;241;1068;-47
2021/10/06 06:10:04;;;;;;;;;;;21.60;58.10;;;;;;494569;241;1191;-47
2021/10/06 06:12:09;;;;;;;;;;;21.60;58.10;;;;;;494619;240;1400;-47
2021/10/06 06:14:07;;;;;;;;;;;21.60;58.10;;;;;;494395;240;2156;-47
2021/10/06 06:16:08;;;;;;;;;;;21.60;58.10;;;;;;494638;240;1134;-47
2021/10/06 06:18:09;;;;;;;;;;;21.60;58.10;;;;;;494683;240;1439;-47
2021/10/06 06:20:11;;;;;;;;;;;21.60;58.00;;;;;;494633;240;1228;-47
2021/10/06 06:22:12;;;;;;;;;;;21.60;58.10;;;;;;494718;240;1414;-47
2021/10/06 06:24:13;;;;;;;;;;;21.60;58.10;;;;;;494563;241;1258;-47
2021/10/06 06:26:15;;;;;;;;;;;21.60;58.20;;;;;;494555;240;2194;-47
2021/10/06 06:28:16;;;;;;;;;;;21.60;58.20;;;;;;494712;241;1126;-47
2021/10/06 06:30:18;;;;;;;;;;;21.60;58.30;;;;;;494682;240;1128;-47
2021/10/06 06:32:19;;;;;;;;;;;21.60;58.30;;;;;;494495;240;1192;-47
2021/10/06 06:34:22;;;;;;;;;;;21.60;58.20;;;;;;494385;241;1220;-47
2021/10/06 06:36:22;;;;;;;;;;;21.60;58.10;;;;;;494532;240;2156;-47
2021/10/06 06:38:23;;;;;;;;;;;21.60;58.20;;;;;;494629;240;1151;-47
2021/10/06 06:40:24;;;;;;;;;;;21.60;58.20;;;;;;494695;240;1073;-47
2021/10/06 06:42:26;;;;;;;;;;;21.60;58.10;;;;;;494494;241;1181;-47
2021/10/06 06:44:27;;;;;;;;;;;21.60;58.10;;;;;;494373;240;1275;-47
2021/10/06 06:46:28;;;;;;;;;;;21.60;58.20;;;;;;494436;241;2111;-47
2021/10/06 06:48:29;;;;;;;;;;;21.60;58.20;;;;;;494508;241;1130;-47
2021/10/06 06:50:31;;;;;;;;;;;21.60;58.20;;;;;;494495;240;1088;-47
2021/10/06 06:52:32;;;;;;;;;;;21.60;58.10;;;;;;494365;241;1209;-47
2021/10/06 06:54:34;;;;;;;;;;;21.60;58.10;;;;;;494507;240;1072;-47
2021/10/06 06:56:38;;;;;;;;;;;21.60;58.10;;;;;;494343;241;1156;-47
2021/10/06 06:58:37;;;;;;;;;;;21.50;58.10;;;;;;494201;240;2321;-47
2021/10/06 07:00:38;;;;;;;;;;;21.60;58.10;;;;;;494539;240;1224;-47
2021/10/06 07:02:40;;;;;;;;;;;21.60;58.10;;;;;;494552;241;1213;-47
2021/10/06 07:04:41;;;;;;;;;;;21.60;58.10;;;;;;494424;240;1073;-47
2021/10/06 07:06:42;;;;;;;;;;;21.60;58.10;;;;;;494423;241;2203;-47
2021/10/06 07:08:47;;;;;;;;;;;21.60;58.10;;;;;;494756;240;1085;-47
2021/10/06 07:10:45;;;;;;;;;;;21.60;58.10;;;;;;494247;240;2376;-47
2021/10/06 07:12:46;;;;;;;;;;;21.60;58.10;;;;;;494426;240;1203;-47
2021/10/06 07:14:47;;;;;;;;;;;21.60;58.10;;;;;;494439;241;1207;-47
2021/10/06 07:16:49;;;;;;;;;;;21.60;58.20;;;;;;494404;240;1224;-47
2021/10/06 07:18:50;;;;;;;;;;;21.60;58.20;;;;;;494567;240;1146;-47
2021/10/06 07:20:52;;;;;;;;;;;21.60;58.10;;;;;;494431;240;1239;-47
2021/10/06 07:22:53;;;;;;;;;;;21.60;58.10;;;;;;494687;240;1141;-47
2021/10/06 07:24:55;;;;;;;;;;;21.60;58.10;;;;;;494365;240;1073;-47
2021/10/06 07:26:56;;;;;;;;;;;21.60;58.10;;;;;;494269;241;2194;-47
2021/10/06 07:28:57;;;;;;;;;;;21.60;58.10;;;;;;494397;240;1131;-47
2021/10/06 07:30:58;;;;;;;;;;;21.60;58.20;;;;;;494372;240;1310;-47
2021/10/06 07:33:00;;;;;;;;;;;21.60;58.10;;;;;;494310;241;1171;-47
2021/10/06 07:35:01;;;;;;;;;;;21.60;58.10;;;;;;494313;240;1082;-47
2021/10/06 07:37:02;;;;;;;;;;;21.60;58.10;;;;;;494319;241;1356;-47
2021/10/06 07:39:04;;;;;;;;;;;21.60;58.10;;;;;;494490;240;1185;-47
2021/10/06 07:41:05;;;;;;;;;;;21.60;58.10;;;;;;494238;241;1464;-47
2021/10/06 07:43:06;;;;;;;;;;;21.60;58.00;;;;;;494288;241;1135;-47
2021/10/06 07:45:08;;;;;;;;;;;21.60;58.00;;;;;;494410;240;1182;-47
2021/10/06 07:47:09;;;;;;;;;;;21.60;58.00;;;;;;494260;241;2106;-47
2021/10/06 07:49:10;;;;;;;;;;;21.60;58.00;;;;;;494399;241;1157;-47
2021/10/06 07:51:12;;;;;;;;;;;21.60;58.10;;;;;;494504;240;1214;-47
2021/10/06 07:53:13;;;;;;;;;;;21.60;58.10;;;;;;494712;241;1198;-48
2021/10/06 07:55:14;;;;;;;;;;;21.60;58.10;;;;;;494764;240;1140;-47
2021/10/06 07:57:16;;;;;;;;;;;21.60;58.10;;;;;;494693;240;1284;-47
2021/10/06 07:59:17;;;;;;;;;;;21.60;58.10;;;;;;494599;238;1106;-47
2021/10/06 08:01:18;;;;;;;;;;;21.60;58.10;;;;;;494227;241;1294;-47
2021/10/06 08:03:19;;;;;;;;;;;21.60;58.10;;;;;;494547;241;1314;-47
2021/10/06 08:05:21;;;;;;;;;;;21.60;58.10;;;;;;494317;241;1128;-47
2021/10/06 08:07:22;;;;;;;;;;;21.50;58.20;;;;;;494558;240;2185;-47
2021/10/06 08:09:23;;;;;;;;;;;21.60;58.20;;;;;;495294;240;876;-47
2021/10/06 08:11:25;;;;;;;;;;;21.60;58.20;;;;;;494909;240;1146;-47
2021/10/06 08:13:26;;;;;;;;;;;21.60;58.30;;;;;;494664;240;1137;-47
2021/10/06 08:15:27;;;;;;;;;;;21.60;58.20;;;;;;494248;241;1167;-47
2021/10/06 08:17:29;;;;;;;;;;;21.60;58.10;;;;;;494535;240;1256;-47
2021/10/06 08:19:30;;;;;;;;;;;21.70;58.10;;;;;;494128;240;1846;-47
2021/10/06 08:21:31;;;;;;;;;;;21.70;58.10;;;;;;494250;240;1325;-47
2021/10/06 08:23:33;;;;;;;;;;;21.70;58.00;;;;;;494625;240;1157;-47
2021/10/06 08:25:34;;;;;;;;;;;21.70;58.00;;;;;;494296;240;1184;-47
2021/10/06 08:27:36;;;;;;;;;;;21.70;57.90;;;;;;494538;241;2186;-47
2021/10/06 08:29:37;;;;;;;;;;;21.80;57.90;;;;;;494292;240;1114;-48
2021/10/06 08:31:38;;;;;;;;;;;21.80;57.90;;;;;;494185;241;1305;-47
2021/10/06 08:33:40;;;;;;;;;;;21.80;57.80;;;;;;494329;240;1386;-47
2021/10/06 08:35:41;;;;;;;;;;;21.70;57.80;;;;;;494355;240;1128;-47
2021/10/06 08:37:42;;;;;;;;;;;21.70;57.90;;;;;;494352;241;1233;-47
2021/10/06 08:39:44;;;;;;;;;;;21.80;57.90;;;;;;494477;240;1127;-47
2021/10/06 08:41:45;;;;;;;;;;;21.70;57.90;;;;;;494311;240;1340;-48
2021/10/06 08:43:46;;;;;;;;;;;21.80;57.90;;;;;;494430;241;1093;-47
2021/10/06 08:45:48;;;;;;;;;;;21.70;57.80;;;;;;494315;240;1357;-47
2021/10/06 08:47:49;;;;;;;;;;;21.70;57.90;;;;;;494742;240;2195;-47
2021/10/06 08:49:50;;;;;;;;;;;21.70;57.80;;;;;;494876;240;1096;-47
2021/10/06 08:51:51;;;;;;;;;;;21.80;57.80;;;;;;494501;240;1277;-47
2021/10/06 08:53:53;;;;;;;;;;;21.80;57.80;;;;;;494976;240;1191;-47
2021/10/06 08:55:54;;;;;;;;;;;21.80;57.70;;;;;;494815;241;1137;-47
2021/10/06 08:57:55;;;;;;;;;;;21.80;57.70;;;;;;494992;240;1075;-47
2021/10/06 08:59:57;;;;;;;;;;;21.80;57.60;;;;;;494446;241;1073;-47
2021/10/06 09:01:58;;;;;;;;;;;21.80;57.50;;;;;;494412;241;1156;-47
2021/10/06 09:04:00;;;;;;;;;;;21.80;57.60;;;;;;494371;240;1224;-47
2021/10/06 09:06:01;;;;;;;;;;;21.80;57.60;;;;;;494391;240;1306;-47
2021/10/06 09:08:02;;;;;;;;;;;21.80;57.70;;;;;;494529;240;2190;-47
2021/10/06 09:10:03;;;;;;;;;;;21.80;57.70;;;;;;494432;241;1055;-47
2021/10/06 09:12:05;;;;;;;;;;;21.80;57.60;;;;;;494464;240;1240;-47
2021/10/06 09:14:07;;;;;;;;;;;21.80;57.70;;;;;;495249;240;1070;-47
2021/10/06 09:16:07;;;;;;;;;;;21.90;57.60;;;;;;494425;240;2123;-47
2021/10/06 09:18:09;;;;;;;;;;;21.80;57.60;;;;;;494746;240;1047;-47
2021/10/06 09:20:10;;;;;;;;;;;21.90;57.60;;;;;;494743;241;946;-47
2021/10/06 09:22:11;;;;;;;;;;;21.80;57.60;;;;;;494634;241;1205;-48
2021/10/06 09:24:13;;;;;;;;;;;21.80;57.60;;;;;;494725;240;1176;-47
2021/10/06 09:26:14;;;;;;;;;;;21.80;57.50;;;;;;494449;240;1226;-47
2021/10/06 09:28:15;;;;;;;;;;;21.80;57.50;;;;;;494431;240;2186;-47
2021/10/06 09:30:17;;;;;;;;;;;21.80;57.60;;;;;;494337;241;1104;-47
2021/10/06 09:32:18;;;;;;;;;;;21.90;57.60;;;;;;493760;241;1273;-47
2021/10/06 09:34:19;;;;;;;;;;;21.90;57.60;;;;;;494644;241;1264;-47
2021/10/06 09:36:21;;;;;;;;;;;21.90;57.60;;;;;;494626;237;1106;-47
2021/10/06 09:38:22;;;;;;;;;;;21.90;57.60;;;;;;494981;240;1083;-47
2021/10/06 09:40:23;;;;;;;;;;;21.90;57.60;;;;;;494643;241;853;-47
2021/10/06 09:42:24;;;;;;;;;;;21.90;57.60;;;;;;494467;240;1172;-47
2021/10/06 09:44:26;;;;;;;;;;;21.90;57.50;;;;;;494405;240;1089;-47
2021/10/06 09:46:27;;;;;;;;;;;21.90;57.50;;;;;;494503;241;1298;-47
2021/10/06 09:48:28;;;;;;;;;;;21.90;57.50;;;;;;494658;240;2178;-47
2021/10/06 09:50:30;;;;;;;;;;;21.80;57.60;;;;;;494346;240;1086;-47
2021/10/06 09:52:31;;;;;;;;;;;21.80;57.60;;;;;;494057;241;1225;-47
2021/10/06 09:54:33;;;;;;;;;;;21.80;57.60;;;;;;494185;240;1217;-47
2021/10/06 09:56:34;;;;;;;;;;;21.90;57.60;;;;;;494275;240;1433;-47
2021/10/06 09:58:36;;;;;;;;;;;21.90;57.50;;;;;;494442;240;1112;-47
2021/10/06 10:00:37;;;;;;;;;;;21.90;57.50;;;;;;494449;240;1130;-47
2021/10/06 10:02:39;;;;;;;;;;;21.90;57.60;;;;;;494039;241;1088;-47
2021/10/06 10:04:40;;;;;;;;;;;21.90;57.60;;;;;;494137;240;1058;-47
2021/10/06 10:06:41;;;;;;;;;;;21.90;57.50;;;;;;493452;241;1530;-47
2021/10/06 10:08:43;;;;;;;;;;;21.90;57.50;;;;;;494373;240;2190;-47
2021/10/06 10:10:44;;;;;;;;;;;21.90;57.50;;;;;;494461;240;1413;-47
2021/10/06 10:12:45;;;;;;;;;;;21.90;57.50;;;;;;494363;241;1195;-47
2021/10/06 10:14:47;;;;;;;;;;;21.90;57.50;;;;;;494431;240;1092;-47
2021/10/06 10:16:48;;;;;;;;;;;21.90;57.50;;;;;;494438;240;1364;-47
2021/10/06 10:18:49;;;;;;;;;;;21.90;57.50;;;;;;495000;240;733;-47
2021/10/06 10:20:51;;;;;;;;;;;21.90;57.60;;;;;;493610;241;1617;-47
2021/10/06 10:22:52;;;;;;;;;;;21.90;57.50;;;;;;493884;241;1071;-46
2021/10/06 10:24:53;;;;;;;;;;;21.90;57.50;;;;;;494139;241;1093;-47
2021/10/06 10:26:55;;;;;;;;;;;21.90;57.50;;;;;;494611;240;1050;-47
2021/10/06 10:28:56;;;;;;;;;;;21.90;57.50;;;;;;494742;240;2194;-47
2021/10/06 10:30:57;;;;;;;;;;;21.90;57.40;;;;;;494605;240;1476;-47
2021/10/06 10:32:59;;;;;;;;;;;21.90;57.50;;;;;;494348;240;1234;-47
2021/10/06 10:35:00;;;;;;;;;;;21.90;57.60;;;;;;494466;240;1118;-47
2021/10/06 10:37:01;;;;;;;;;;;21.90;57.60;;;;;;494132;241;1171;-47
2021/10/06 10:39:03;;;;;;;;;;;21.90;57.50;;;;;;494674;240;1118;-47
2021/10/06 10:41:04;;;;;;;;;;;21.90;57.50;;;;;;494750;240;1218;-47
2021/10/06 10:43:06;;;;;;;;;;;21.90;57.40;;;;;;494685;240;1271;-47
2021/10/06 10:45:07;;;;;;;;;;;21.90;57.50;;;;;;494460;240;2012;-47
2021/10/06 10:47:08;;;;;;;;;;;21.90;57.50;;;;;;494502;240;1234;-47
2021/10/06 10:49:09;;;;;;;;;;;21.90;57.60;;;;;;494454;240;2185;-47
2021/10/06 10:51:11;;;;;;;;;;;21.90;57.50;;;;;;494383;240;1147;-47
2021/10/06 10:53:13;;;;;;;;;;;21.90;57.40;;;;;;494322;240;1079;-47
2021/10/06 10:55:13;;;;;;;;;;;22.00;57.50;;;;;;494097;240;2254;-47
2021/10/06 10:57:14;;;;;;;;;;;22.00;57.40;;;;;;494245;241;1229;-47
2021/10/06 10:59:16;;;;;;;;;;;21.90;57.30;;;;;;494348;240;1101;-47
2021/10/06 11:01:18;;;;;;;;;;;21.90;57.40;;;;;;494215;240;1152;-47
2021/10/06 11:03:18;;;;;;;;;;;22.00;57.40;;;;;;494385;241;1052;-47
2021/10/06 11:05:20;;;;;;;;;;;22.00;57.50;;;;;;494290;241;1140;-47
2021/10/06 11:07:21;;;;;;;;;;;22.00;57.40;;;;;;494324;240;1277;-47
2021/10/06 11:09:23;;;;;;;;;;;22.00;57.40;;;;;;494309;240;2162;-47
2021/10/06 11:11:24;;;;;;;;;;;22.00;57.30;;;;;;494113;241;1551;-47
2021/10/06 11:13:25;;;;;;;;;;;22.00;57.40;;;;;;494256;241;1149;-47
2021/10/06 11:15:27;;;;;;;;;;;21.90;57.30;;;;;;494268;240;1472;-47
2021/10/06 11:17:28;;;;;;;;;;;21.90;57.30;;;;;;494238;240;1174;-47
2021/10/06 11:19:29;;;;;;;;;;;22.00;57.40;;;;;;494409;240;1199;-47
2021/10/06 11:21:31;;;;;;;;;;;21.90;57.40;;;;;;494292;240;1342;-47
2021/10/06 11:23:33;;;;;;;;;;;22.00;57.40;;;;;;494281;240;1167;-47
2021/10/06 11:25:33;;;;;;;;;;;22.00;57.40;;;;;;494262;240;1653;-47
2021/10/06 11:27:35;;;;;;;;;;;21.90;57.40;;;;;;494494;241;2187;-47
2021/10/06 11:29:36;;;;;;;;;;;22.00;57.40;;;;;;495118;240;917;-47
2021/10/06 11:31:37;;;;;;;;;;;22.00;57.40;;;;;;494441;241;1814;-47
2021/10/06 11:33:39;;;;;;;;;;;22.00;57.30;;;;;;495094;240;1527;-47
2021/10/06 11:35:40;;;;;;;;;;;22.00;57.40;;;;;;494648;241;1257;-47
2021/10/06 11:37:41;;;;;;;;;;;22.00;57.40;;;;;;494331;241;1233;-47
2021/10/06 11:39:43;;;;;;;;;;;21.90;57.30;;;;;;494222;241;1227;-47
2021/10/06 11:41:44;;;;;;;;;;;21.90;57.30;;;;;;494248;240;1313;-47
2021/10/06 11:43:45;;;;;;;;;;;22.00;57.40;;;;;;494133;241;1342;-47
2021/10/06 11:45:47;;;;;;;;;;;22.00;57.30;;;;;;494163;241;1297;-47
2021/10/06 11:47:48;;;;;;;;;;;22.00;57.30;;;;;;494374;240;2103;-47
2021/10/06 11:49:50;;;;;;;;;;;22.00;57.20;;;;;;494444;240;1101;-47
2021/10/06 11:51:52;;;;;;;;;;;22.00;57.30;;;;;;494231;240;1288;-47
2021/10/06 11:53:53;;;;;;;;;;;22.00;57.20;;;;;;494244;240;1324;-47
2021/10/06 11:55:54;;;;;;;;;;;22.10;57.20;;;;;;494187;240;1464;-47